Time;durP1;ratioP1;P1;durP2;ratioP2;P2;SDS_P1;SDS_P2;PMS_P1;PMS_P2;Temp;Humidity;BMP_temperature;BMP_pressure;BME280_temperature;BME280_humidity;BME280_pressure;Samples;Min_cycle;Max_cycle;Signal;HPM_P1;HPM_P2
2023/09/16 00:01:49;;;;;;;2.93;1.27;;;;;;;16.56;93.03;101465.34;5074439;28;20790;-71
2023/09/16 00:04:16;;;;;;;4.37;1.10;;;;;;;16.52;93.39;101463.56;5073659;28;20984;-72
2023/09/16 00:06:44;;;;;;;2.63;0.80;;;;;;;16.49;93.53;101469.66;5073716;28;20977;-72
2023/09/16 00:09:10;;;;;;;3.57;1.20;;;;;;;16.43;94.04;101468.22;5074106;28;20448;-71
2023/09/16 00:11:37;;;;;;;3.03;1.20;;;;;;;16.39;93.33;101468.03;5074144;28;20791;-72
2023/09/16 00:14:04;;;;;;;3.17;1.17;;;;;;;16.34;93.01;101474.47;5073922;28;20491;-71
2023/09/16 00:16:30;;;;;;;3.97;1.00;;;;;;;16.29;93.63;101469.16;5073854;28;20457;-71
2023/09/16 00:18:57;;;;;;;2.40;0.73;;;;;;;16.26;93.05;101472.50;5073889;28;20521;-71
2023/09/16 00:21:24;;;;;;;3.17;1.40;;;;;;;16.27;93.21;101467.84;5073570;28;20957;-68
2023/09/16 00:23:53;;;;;;;3.50;1.20;;;;;;;16.24;92.98;101463.81;5073716;28;20481;-71
2023/09/16 00:26:19;;;;;;;5.03;1.00;;;;;;;16.19;93.38;101461.22;5074172;28;20476;-71
2023/09/16 00:28:46;;;;;;;2.53;0.90;;;;;;;16.18;93.00;101470.56;5074106;28;20524;-71
2023/09/16 00:31:13;;;;;;;2.97;0.90;;;;;;;16.14;91.53;101464.91;5074423;28;20530;-71
2023/09/16 00:33:40;;;;;;;2.30;0.63;;;;;;;16.11;91.09;101464.72;5073658;28;20464;-71
2023/09/16 00:36:07;;;;;;;3.27;1.50;;;;;;;16.04;91.31;101458.94;5073309;28;20519;-71
2023/09/16 00:38:34;;;;;;;2.90;1.00;;;;;;;15.99;90.65;101459.09;5073413;28;20945;-71
2023/09/16 00:41:02;;;;;;;2.60;0.80;;;;;;;15.97;91.05;101458.56;5073576;28;20437;-71
2023/09/16 00:43:29;;;;;;;2.47;0.60;;;;;;;15.94;92.63;101459.19;5073307;28;20441;-71
2023/09/16 00:45:56;;;;;;;2.10;0.70;;;;;;;15.90;92.61;101453.59;5073794;28;20897;-71
2023/09/16 00:48:22;;;;;;;2.30;0.80;;;;;;;15.94;92.99;101459.19;5073588;28;20465;-71
2023/09/16 00:50:49;;;;;;;2.40;0.87;;;;;;;15.93;92.68;101452.94;5073829;28;20433;-71
2023/09/16 00:53:17;;;;;;;2.73;0.87;;;;;;;15.93;92.62;101447.47;5073476;28;20794;-71
2023/09/16 00:55:45;;;;;;;4.20;1.50;;;;;;;15.95;93.13;101449.91;5073455;28;20489;-71
2023/09/16 00:58:17;;;;;;;2.80;0.93;;;;;;;15.94;92.36;101448.28;5073499;28;20521;-71
2023/09/16 01:00:45;;;;;;;2.30;0.77;;;;;;;15.91;92.69;101446.19;5073433;28;20449;-71
2023/09/16 01:03:12;;;;;;;2.33;0.70;;;;;;;15.92;93.23;101445.88;5073316;28;20469;-71
2023/09/16 01:05:39;;;;;;;2.30;0.70;;;;;;;15.91;92.91;101438.78;5073023;28;20572;-71
2023/09/16 01:08:07;;;;;;;3.67;1.20;;;;;;;15.90;92.83;101437.19;5072986;28;20452;-71
2023/09/16 01:10:34;;;;;;;2.73;0.83;;;;;;;15.91;92.71;101433.31;5073353;28;20504;-71
2023/09/16 01:13:01;;;;;;;3.80;1.00;;;;;;;15.86;91.79;101431.53;5072946;28;20437;-71
2023/09/16 01:15:33;;;;;;;2.97;1.10;;;;;;;15.86;91.68;101437.00;5073498;28;21044;-71
2023/09/16 01:18:06;;;;;;;2.50;1.00;;;;;;;15.84;92.00;101431.03;5075233;28;20504;-71
2023/09/16 01:20:33;;;;;;;2.77;0.90;;;;;;;15.83;91.79;101434.91;5077068;28;20478;-71
2023/09/16 01:23:00;;;;;;;3.20;0.97;;;;;;;15.83;92.33;101431.38;5077486;28;20441;-71
2023/09/16 01:25:29;;;;;;;2.67;0.67;;;;;;;15.82;92.56;101422.38;5076791;28;21015;-71
2023/09/16 01:27:56;;;;;;;2.67;0.80;;;;;;;15.80;93.03;101419.13;5077194;28;20512;-71
2023/09/16 01:30:26;;;;;;;3.60;1.17;;;;;;;15.80;93.01;101415.59;5077274;28;20437;-71
2023/09/16 01:32:58;;;;;;;2.30;0.80;;;;;;;15.78;92.97;101424.13;5077577;28;20533;-71
2023/09/16 01:35:30;;;;;;;3.27;1.27;;;;;;;15.79;92.31;101425.72;5077397;28;20508;-72
2023/09/16 01:37:59;;;;;;;2.20;0.63;;;;;;;15.77;92.01;101418.97;5076989;28;20428;-72
2023/09/16 01:40:30;;;;;;;3.60;1.00;;;;;;;15.76;91.83;101420.91;5077027;28;20452;-72
2023/09/16 01:42:58;;;;;;;2.30;0.80;;;;;;;15.73;92.36;101416.06;5077146;28;20435;-71
2023/09/16 01:45:25;;;;;;;3.17;1.20;;;;;;;15.73;92.84;101421.53;5077014;28;20483;-72
2023/09/16 01:47:52;;;;;;;2.27;0.77;;;;;;;15.75;92.42;101419.28;5076788;28;20863;-71
2023/09/16 01:50:18;;;;;;;2.30;0.87;;;;;;;15.73;92.14;101416.06;5076705;28;20477;-71
2023/09/16 01:52:45;;;;;;;2.40;1.10;;;;;;;15.71;91.63;101406.56;5076637;28;20449;-71
2023/09/16 01:55:11;;;;;;;2.50;1.03;;;;;;;15.68;92.58;101404.47;5076666;28;20464;-72
2023/09/16 01:57:39;;;;;;;4.50;1.23;;;;;;;15.65;93.24;101405.91;5076724;28;20519;-71
2023/09/16 02:00:07;;;;;;;2.93;0.80;;;;;;;15.65;93.26;101403.16;5076146;28;20952;-71
2023/09/16 02:02:34;;;;;;;2.40;0.77;;;;;;;15.64;93.90;101405.09;5077128;28;20473;-71
2023/09/16 02:05:01;;;;;;;3.17;1.07;;;;;;;15.65;93.38;101414.09;5076442;28;21039;-71
2023/09/16 02:07:27;;;;;;;2.73;1.00;;;;;;;15.66;92.70;101404.78;5075969;28;20812;-71
2023/09/16 02:09:54;;;;;;;2.53;1.07;;;;;;;15.65;92.62;101403.16;5076412;28;20448;-71
2023/09/16 02:12:21;;;;;;;3.03;1.00;;;;;;;15.61;92.54;101402.16;5077412;28;20497;-73
2023/09/16 02:14:51;;;;;;;2.60;0.80;;;;;;;15.61;92.15;101393.97;5077647;28;20448;-73
2023/09/16 02:17:18;;;;;;;2.60;1.00;;;;;;;15.60;92.44;101398.63;5076259;28;20526;-71
2023/09/16 02:19:45;;;;;;;2.70;0.70;;;;;;;15.59;92.34;101396.22;5076518;28;20448;-70
2023/09/16 02:22:11;;;;;;;2.67;1.00;;;;;;;15.58;91.71;101389.13;5076322;28;20438;-73
2023/09/16 02:24:38;;;;;;;2.50;0.73;;;;;;;15.57;91.61;101395.72;5075781;28;20517;-71
2023/09/16 02:27:05;;;;;;;2.57;0.87;;;;;;;15.55;91.98;101392.50;5076197;28;20560;-71
2023/09/16 02:29:33;;;;;;;2.70;0.90;;;;;;;15.55;92.24;101387.84;5075908;28;20508;-71
2023/09/16 02:32:01;;;;;;;4.33;1.20;;;;;;;15.57;92.17;101395.72;5075631;28;20982;-70
2023/09/16 02:34:28;;;;;;;2.37;0.80;;;;;;;15.59;91.82;101393.50;5075673;28;20437;-70
2023/09/16 02:36:55;;;;;;;2.97;1.23;;;;;;;15.61;91.77;101383.84;5075575;28;20465;-70
2023/09/16 02:39:21;;;;;;;2.47;0.80;;;;;;;15.64;91.30;101391.44;5076176;28;20530;-70
2023/09/16 02:41:48;;;;;;;3.03;1.10;;;;;;;15.62;91.08;101390.91;5075870;28;20477;-69
2023/09/16 02:44:14;;;;;;;2.33;0.80;;;;;;;15.64;91.37;101390.66;5076080;28;20445;-69
2023/09/16 02:46:41;;;;;;;2.90;1.00;;;;;;;15.60;91.64;101378.72;5075672;28;20467;-70
2023/09/16 02:49:09;;;;;;;3.10;1.17;;;;;;;15.63;90.59;101376.16;5076004;28;20532;-70
2023/09/16 02:51:35;;;;;;;3.10;1.03;;;;;;;15.64;90.70;101377.78;5075205;28;20438;-70
2023/09/16 02:54:02;;;;;;;2.40;0.73;;;;;;;15.66;90.79;101373.94;5075638;28;20437;-69
2023/09/16 02:56:29;;;;;;;2.00;0.60;;;;;;;15.66;90.32;101373.94;5075832;28;20465;-71
2023/09/16 02:58:55;;;;;;;2.90;1.17;;;;;;;15.66;90.46;101374.72;5075254;28;20548;-70
2023/09/16 03:01:22;;;;;;;2.60;1.00;;;;;;;15.66;90.66;101366.53;5075454;28;20414;-70
2023/09/16 03:03:48;;;;;;;3.87;1.20;;;;;;;15.68;91.01;101377.97;5075353;28;20520;-70
2023/09/16 03:06:16;;;;;;;2.90;0.97;;;;;;;15.67;91.26;101367.34;5075364;28;20529;-69
2023/09/16 03:08:43;;;;;;;2.50;0.97;;;;;;;15.64;90.52;101377.78;5075492;28;20925;-69
2023/09/16 03:11:12;;;;;;;2.20;0.60;;;;;;;15.62;90.57;101376.44;5075674;28;20813;-70
2023/09/16 03:13:38;;;;;;;3.27;1.17;;;;;;;15.61;90.83;101380.31;5075276;28;20445;-70
2023/09/16 03:16:17;;;;;;;2.90;1.40;;;;;;;15.56;91.25;101385.91;5075110;28;20462;-70
2023/09/16 03:18:45;;;;;;;2.33;0.90;;;;;;;15.55;91.08;101381.59;5075026;28;20906;-70
2023/09/16 03:21:12;;;;;;;2.10;0.63;;;;;;;15.55;91.25;101376.13;5075062;28;20441;-70
2023/09/16 03:23:40;;;;;;;3.97;1.27;;;;;;;15.51;91.36;101373.22;5074972;28;20955;-70
2023/09/16 03:26:07;;;;;;;2.40;0.80;;;;;;;15.53;91.09;101370.94;5075111;28;20513;-70
2023/09/16 03:28:34;;;;;;;2.43;0.77;;;;;;;15.52;91.29;101372.09;5075042;28;20524;-70
2023/09/16 03:31:01;;;;;;;2.40;0.73;;;;;;;15.53;90.48;101367.41;5074777;28;20446;-70
2023/09/16 03:33:28;;;;;;;2.10;0.70;;;;;;;15.54;89.85;101363.59;5074764;28;20476;-70
2023/09/16 03:35:54;;;;;;;2.27;0.70;;;;;;;15.51;89.93;101358.75;5074981;28;20479;-70
2023/09/16 03:38:21;;;;;;;5.50;0.97;;;;;;;15.49;90.14;101352.78;5074850;28;20533;-70
2023/09/16 03:40:50;;;;;;;2.90;1.00;;;;;;;15.50;90.81;101347.03;5074586;28;20445;-70
2023/09/16 03:43:17;;;;;;;3.33;1.00;;;;;;;15.49;90.59;101341.88;5074578;28;20437;-70
2023/09/16 03:45:43;;;;;;;3.23;1.20;;;;;;;15.51;90.39;101336.91;5074463;28;20480;-70
2023/09/16 03:48:10;;;;;;;2.80;1.10;;;;;;;15.49;90.10;101339.94;5074146;28;20951;-70
2023/09/16 03:50:37;;;;;;;2.97;0.90;;;;;;;15.45;90.84;101335.41;5074436;28;20539;-70
2023/09/16 03:53:04;;;;;;;2.60;0.83;;;;;;;15.45;90.42;101332.69;5074318;28;20437;-70
2023/09/16 03:55:31;;;;;;;4.43;0.90;;;;;;;15.42;90.74;101334.16;5073942;28;20583;-70
2023/09/16 03:58:00;;;;;;;2.20;0.80;;;;;;;15.39;90.59;101335.56;5074279;28;20896;-70
2023/09/16 04:00:27;;;;;;;2.17;0.67;;;;;;;15.37;89.51;101337.81;5074030;28;20453;-70
2023/09/16 04:02:53;;;;;;;2.80;0.90;;;;;;;15.32;89.02;101340.69;5074224;28;20461;-70
2023/09/16 04:05:20;;;;;;;3.03;1.30;;;;;;;15.27;87.15;101332.66;5073677;28;20493;-70
2023/09/16 04:07:47;;;;;;;2.70;0.87;;;;;;;15.21;85.43;101331.16;5073666;28;20457;-69
2023/09/16 04:10:14;;;;;;;2.53;1.03;;;;;;;15.17;87.06;101332.91;5073703;28;20450;-71
2023/09/16 04:12:41;;;;;;;3.20;1.00;;;;;;;15.13;88.60;101332.72;5074185;28;20477;-71
2023/09/16 04:15:09;;;;;;;2.77;1.00;;;;;;;15.10;89.87;101333.34;5073728;28;20438;-73
2023/09/16 04:17:36;;;;;;;2.13;0.83;;;;;;;15.09;90.69;101326.25;5073984;28;20536;-72
2023/09/16 04:20:05;;;;;;;3.30;0.90;;;;;;;15.03;92.47;101326.72;5074291;28;20532;-72
2023/09/16 04:22:32;;;;;;;2.47;0.70;;;;;;;15.06;92.66;101323.38;5073728;28;20445;-72
2023/09/16 04:24:59;;;;;;;7.83;1.37;;;;;;;15.04;92.31;101317.41;5073455;28;20487;-72
2023/09/16 04:27:25;;;;;;;2.37;0.93;;;;;;;15.03;92.33;101315.81;5073705;28;20489;-72
2023/09/16 04:29:52;;;;;;;3.03;0.90;;;;;;;15.01;92.55;101313.41;5074165;28;21009;-72
2023/09/16 04:32:20;;;;;;;3.00;0.97;;;;;;;14.95;91.74;101324.75;5074561;28;20469;-72
2023/09/16 04:34:47;;;;;;;2.40;0.90;;;;;;;14.84;89.17;101330.47;5073976;28;20445;-72
2023/09/16 04:37:15;;;;;;;3.40;1.27;;;;;;;14.77;89.02;101332.81;5073945;28;20461;-72
2023/09/16 04:39:42;;;;;;;3.50;0.77;;;;;;;14.71;89.46;101331.34;5073998;28;20441;-72
2023/09/16 04:42:09;;;;;;;4.03;1.13;;;;;;;14.75;90.75;101340.53;5073590;28;20878;-72
2023/09/16 04:44:38;;;;;;;2.63;1.00;;;;;;;14.74;91.55;101341.66;5073641;28;20439;-71
2023/09/16 04:47:05;;;;;;;3.17;1.00;;;;;;;14.75;92.13;101331.53;5073537;28;20497;-73
2023/09/16 04:49:33;;;;;;;2.20;0.70;;;;;;;14.70;92.72;101337.09;5073604;28;20534;-73
2023/09/16 04:52:00;;;;;;;2.90;1.00;;;;;;;14.69;93.23;101349.94;5073524;28;20473;-72
2023/09/16 04:54:28;;;;;;;2.60;1.17;;;;;;;14.66;93.38;101339.66;5073491;28;20517;-72
2023/09/16 04:56:56;;;;;;;3.67;1.47;;;;;;;14.67;93.69;101344.00;5073148;28;20464;-72
2023/09/16 04:59:23;;;;;;;3.10;0.90;;;;;;;14.65;93.84;101338.03;5073215;28;20842;-72
2023/09/16 05:01:51;;;;;;;3.07;1.10;;;;;;;14.68;94.01;101336.63;5073530;28;20484;-72
2023/09/16 05:04:18;;;;;;;3.53;0.90;;;;;;;14.60;93.95;101336.22;5073018;28;20983;-73
2023/09/16 05:06:46;;;;;;;2.87;1.30;;;;;;;14.59;94.30;101344.72;5073205;28;20517;-72
2023/09/16 05:09:12;;;;;;;2.50;0.93;;;;;;;14.60;94.40;101338.16;5073214;28;20441;-73
2023/09/16 05:11:39;;;;;;;2.30;0.90;;;;;;;14.57;94.29;101345.03;5073271;28;20812;-73
2023/09/16 05:14:05;;;;;;;3.97;1.03;;;;;;;14.61;94.22;101337.06;5073501;28;20486;-73
2023/09/16 05:16:32;;;;;;;2.57;0.77;;;;;;;14.63;94.15;101337.53;5072937;28;20456;-72
2023/09/16 05:18:59;;;;;;;2.80;0.83;;;;;;;14.65;94.47;101348.94;5073801;28;20437;-72
2023/09/16 05:21:25;;;;;;;2.43;0.83;;;;;;;14.61;94.76;101342.50;5073523;28;20433;-71
2023/09/16 05:23:54;;;;;;;3.10;1.10;;;;;;;14.62;94.91;101352.31;5073048;28;20940;-71
2023/09/16 05:26:20;;;;;;;3.70;0.80;;;;;;;14.66;95.17;101345.13;5072891;28;20576;-72
2023/09/16 05:28:47;;;;;;;2.70;0.93;;;;;;;14.63;94.33;101343.00;5073565;28;20908;-71
2023/09/16 05:31:13;;;;;;;2.70;1.03;;;;;;;14.65;95.04;101340.75;5072966;28;20524;-71
2023/09/16 05:33:40;;;;;;;2.67;0.80;;;;;;;14.70;95.10;101343.38;5073089;28;20524;-71
2023/09/16 05:36:07;;;;;;;2.30;0.63;;;;;;;14.74;95.34;101338.09;5073734;28;20552;-70
2023/09/16 05:38:33;;;;;;;3.47;1.20;;;;;;;14.73;95.34;101345.47;5073114;28;20540;-70
2023/09/16 05:41:01;;;;;;;2.87;0.97;;;;;;;14.75;94.83;101348.72;5073196;28;20952;-70
2023/09/16 05:43:28;;;;;;;3.00;0.97;;;;;;;14.78;94.44;101353.53;5072717;28;20445;-70
2023/09/16 05:45:55;;;;;;;2.80;0.67;;;;;;;14.81;94.76;101349.38;5072902;28;20492;-70
2023/09/16 05:48:21;;;;;;;3.03;0.90;;;;;;;14.84;94.67;101351.50;5073516;28;20494;-70
2023/09/16 05:50:56;;;;;;;3.80;0.97;;;;;;;14.88;94.61;101347.84;5073241;28;20532;-71
2023/09/16 05:53:23;;;;;;;3.43;1.33;;;;;;;14.93;94.33;101348.81;5073293;28;20453;-71
2023/09/16 05:55:49;;;;;;;5.03;1.63;;;;;;;14.95;93.87;101355.56;5073557;28;20462;-70
2023/09/16 05:58:18;;;;;;;3.33;1.03;;;;;;;14.97;93.92;101350.63;5072688;28;20524;-70
2023/09/16 06:00:44;;;;;;;2.33;0.83;;;;;;;15.03;93.46;101359.47;5072705;28;20473;-72
2023/09/16 06:03:11;;;;;;;3.30;1.20;;;;;;;15.07;93.32;101349.53;5072935;28;20441;-70
2023/09/16 06:05:38;;;;;;;2.37;0.80;;;;;;;15.13;93.87;101364.66;5076257;28;20575;-70
2023/09/16 06:08:05;;;;;;;7.67;1.30;;;;;;;15.17;93.56;101360.19;5076688;28;20520;-68
2023/09/16 06:10:31;;;;;;;3.43;1.40;;;;;;;15.20;92.82;101369.69;5076936;28;20531;-70
2023/09/16 06:12:58;;;;;;;2.70;0.87;;;;;;;15.27;93.21;101368.13;5076828;28;20468;-71
2023/09/16 06:15:26;;;;;;;2.30;0.80;;;;;;;15.32;93.43;101368.00;5076337;28;20979;-69
2023/09/16 06:17:53;;;;;;;3.03;1.00;;;;;;;15.39;93.29;101364.78;5076189;28;20445;-68
2023/09/16 06:20:19;;;;;;;3.53;1.10;;;;;;;15.46;91.76;101372.56;5076293;28;20859;-69
2023/09/16 06:22:46;;;;;;;3.03;1.17;;;;;;;15.53;91.65;101361.97;5076568;28;20536;-69
2023/09/16 06:25:12;;;;;;;3.13;1.03;;;;;;;15.61;91.50;101362.00;5075929;28;20452;-69
2023/09/16 06:27:39;;;;;;;3.23;1.10;;;;;;;15.66;89.65;101366.53;5076106;28;20463;-69
2023/09/16 06:30:07;;;;;;;2.70;0.83;;;;;;;15.68;89.02;101364.31;5076060;28;20860;-69
2023/09/16 06:32:35;;;;;;;2.40;0.93;;;;;;;15.68;87.88;101364.31;5076050;28;20465;-69
2023/09/16 06:35:02;;;;;;;2.93;0.87;;;;;;;15.76;88.15;101369.00;5076252;28;20480;-69
2023/09/16 06:37:28;;;;;;;4.47;1.07;;;;;;;15.80;89.03;101360.97;5075841;28;20485;-69
2023/09/16 06:39:55;;;;;;;2.83;1.17;;;;;;;15.89;89.77;101362.63;5075893;28;20520;-69
2023/09/16 06:42:22;;;;;;;3.40;1.30;;;;;;;15.95;89.49;101373.41;5075893;28;20477;-69
2023/09/16 06:44:54;;;;;;;4.10;1.53;;;;;;;16.04;89.34;101360.53;5075896;28;20437;-69
2023/09/16 06:47:25;;;;;;;2.73;1.00;;;;;;;16.08;88.36;101361.53;5075690;28;20569;-69
2023/09/16 06:49:54;;;;;;;3.03;0.90;;;;;;;16.10;88.60;101360.06;5075374;28;20429;-69
2023/09/16 06:52:22;;;;;;;2.30;1.00;;;;;;;16.19;87.83;101362.81;5075334;28;20441;-69
2023/09/16 06:54:49;;;;;;;2.57;1.13;;;;;;;16.28;87.82;101363.63;5075703;28;20445;-69
2023/09/16 06:57:16;;;;;;;3.97;1.77;;;;;;;16.34;87.64;101365.09;5075698;28;20456;-69
2023/09/16 06:59:46;;;;;;;2.70;0.80;;;;;;;16.39;85.83;101358.66;5075306;28;20480;-69
2023/09/16 07:02:13;;;;;;;2.87;0.93;;;;;;;16.47;85.61;101370.72;5076193;28;20422;-71
2023/09/16 07:04:40;;;;;;;4.23;1.80;;;;;;;16.51;85.57;101363.47;5075500;28;20444;-71
2023/09/16 07:07:09;;;;;;;2.47;1.17;;;;;;;16.59;85.73;101365.41;5075150;28;20568;-71
2023/09/16 07:09:35;;;;;;;2.60;1.03;;;;;;;16.67;85.70;101364.59;5075624;28;20522;-71
2023/09/16 07:12:02;;;;;;;2.60;1.00;;;;;;;16.71;85.71;101360.09;5075258;28;20455;-70
2023/09/16 07:14:29;;;;;;;4.23;1.53;;;;;;;16.78;83.80;101362.38;5074697;28;20980;-69
2023/09/16 07:16:55;;;;;;;2.80;1.00;;;;;;;16.86;84.20;101358.81;5074186;28;20988;-69
2023/09/16 07:19:22;;;;;;;3.10;0.90;;;;;;;16.93;84.71;101358.34;5075106;28;20480;-69
2023/09/16 07:21:48;;;;;;;3.70;1.13;;;;;;;16.97;85.21;101351.09;5074709;28;20444;-69
2023/09/16 07:24:16;;;;;;;4.10;1.10;;;;;;;17.04;84.79;101362.31;5074642;28;20809;-71
2023/09/16 07:26:44;;;;;;;3.57;1.37;;;;;;;17.08;85.02;101360.53;5074839;28;20568;-68
2023/09/16 07:29:11;;;;;;;5.10;1.43;;;;;;;17.13;85.27;101358.44;5074633;28;20953;-68
2023/09/16 07:31:38;;;;;;;3.20;1.50;;;;;;;17.18;84.15;101359.38;5074559;28;20434;-69
2023/09/16 07:34:04;;;;;;;2.27;0.90;;;;;;;17.27;83.83;101350.03;5074692;28;20530;-68
2023/09/16 07:36:31;;;;;;;3.20;1.43;;;;;;;17.30;84.91;101349.34;5074421;28;20481;-69
2023/09/16 07:38:57;;;;;;;4.00;1.27;;;;;;;17.38;82.56;101354.00;5074514;28;20461;-70
2023/09/16 07:41:25;;;;;;;3.03;1.20;;;;;;;17.43;81.83;101344.81;5074488;28;20913;-71
2023/09/16 07:43:52;;;;;;;2.57;0.90;;;;;;;17.47;81.81;101347.69;5074561;28;20805;-70
2023/09/16 07:46:19;;;;;;;2.57;0.90;;;;;;;17.53;80.75;101340.88;5074498;28;20520;-72
2023/09/16 07:48:45;;;;;;;3.33;1.17;;;;;;;17.61;81.81;101340.84;5074535;28;20520;-70
2023/09/16 07:51:12;;;;;;;2.80;1.37;;;;;;;17.65;81.80;101328.09;5074250;28;20999;-70
2023/09/16 07:53:38;;;;;;;2.77;1.03;;;;;;;17.72;81.73;101335.81;5074691;28;20503;-69
2023/09/16 07:56:05;;;;;;;2.70;0.97;;;;;;;17.79;79.87;101344.31;5074171;28;20453;-69
2023/09/16 07:58:33;;;;;;;4.10;1.20;;;;;;;17.84;80.60;101346.91;5074381;28;20528;-69
2023/09/16 08:01:00;;;;;;;3.53;1.27;;;;;;;17.95;80.09;101350.06;5074369;28;20509;-69
2023/09/16 08:03:26;;;;;;;3.50;0.93;;;;;;;17.99;79.29;101341.97;5073948;28;20528;-70
2023/09/16 08:05:53;;;;;;;2.70;1.23;;;;;;;18.07;79.45;101352.09;5074098;28;20449;-70
2023/09/16 08:08:20;;;;;;;3.43;1.10;;;;;;;18.12;78.30;101357.38;5073997;28;20446;-69
2023/09/16 08:10:49;;;;;;;3.73;1.07;;;;;;;18.16;77.60;101361.06;5073913;28;20981;-69
2023/09/16 08:13:16;;;;;;;2.90;1.00;;;;;;;18.24;79.27;101349.22;5074145;28;20441;-70
2023/09/16 08:15:44;;;;;;;2.93;1.00;;;;;;;18.33;79.06;101343.66;5073824;28;20472;-69
2023/09/16 08:18:11;;;;;;;3.10;1.10;;;;;;;18.41;78.96;101351.81;5073965;28;20529;-69
2023/09/16 08:20:38;;;;;;;2.90;1.60;;;;;;;18.50;78.29;101359.16;5073928;28;20453;-70
2023/09/16 08:23:04;;;;;;;2.40;0.93;;;;;;;18.56;78.37;101352.34;5074254;28;20528;-68
2023/09/16 08:25:31;;;;;;;2.73;1.20;;;;;;;18.61;77.70;101354.88;5073746;28;20516;-70
2023/09/16 08:27:58;;;;;;;3.40;1.23;;;;;;;18.66;78.57;101351.94;5073929;28;20572;-69
2023/09/16 08:30:25;;;;;;;2.40;1.03;;;;;;;18.73;77.24;101346.75;5073757;28;20448;-69
2023/09/16 08:32:53;;;;;;;2.03;0.80;;;;;;;18.83;76.63;101343.56;5073703;28;20450;-69
2023/09/16 08:35:21;;;;;;;2.53;0.90;;;;;;;18.90;76.77;101341.09;5073833;28;20468;-69
2023/09/16 08:37:47;;;;;;;2.97;1.00;;;;;;;18.95;77.34;101334.56;5073337;28;20465;-69
2023/09/16 08:40:15;;;;;;;2.83;1.03;;;;;;;19.06;77.05;101340.41;5074112;28;20996;-69
2023/09/16 08:42:45;;;;;;;2.50;1.00;;;;;;;19.13;77.08;101338.72;5073616;28;20502;-70
2023/09/16 08:45:15;;;;;;;3.80;1.47;;;;;;;19.25;78.47;101335.19;5073604;28;20433;-70
2023/09/16 08:47:49;;;;;;;3.13;1.50;;;;;;;19.35;77.11;101336.69;5073491;28;20902;-70
2023/09/16 08:50:21;;;;;;;3.10;0.90;;;;;;;19.46;75.47;101337.03;5074266;28;20424;-70
2023/09/16 08:52:51;;;;;;;3.40;1.40;;;;;;;19.56;76.03;101333.81;5073952;28;20472;-69
2023/09/16 08:55:20;;;;;;;2.67;0.83;;;;;;;19.70;73.29;101334.34;5073596;28;20437;-69
2023/09/16 08:57:52;;;;;;;2.40;0.90;;;;;;;19.75;73.43;101323.09;5073112;28;21029;-69
2023/09/16 09:00:20;;;;;;;2.70;1.00;;;;;;;19.80;73.22;101328.34;5073047;28;20940;-69
2023/09/16 09:02:49;;;;;;;2.20;0.87;;;;;;;19.84;73.09;101334.78;5073093;28;20431;-69
2023/09/16 09:05:19;;;;;;;2.97;1.30;;;;;;;19.91;74.37;101334.19;5073414;28;20528;-69
2023/09/16 09:07:47;;;;;;;2.80;0.97;;;;;;;19.98;73.50;101328.09;5073214;28;20576;-69
2023/09/16 09:10:13;;;;;;;3.17;1.10;;;;;;;20.17;71.54;101325.53;5073882;28;20484;-69
2023/09/16 09:12:42;;;;;;;3.00;1.40;;;;;;;20.26;71.50;101328.94;5073337;28;20517;-69
2023/09/16 09:15:11;;;;;;;2.77;1.10;;;;;;;20.37;71.95;101321.03;5073367;28;20943;-69
2023/09/16 09:17:39;;;;;;;2.70;1.13;;;;;;;20.42;71.17;101320.75;5072904;28;20464;-69
2023/09/16 09:20:09;;;;;;;2.67;1.10;;;;;;;20.58;69.68;101318.88;5072895;28;20947;-69
2023/09/16 09:22:39;;;;;;;3.20;1.07;;;;;;;20.71;67.04;101316.88;5073466;28;20491;-69
2023/09/16 09:25:07;;;;;;;2.70;1.40;;;;;;;20.83;68.89;101316.81;5073615;28;20441;-69
2023/09/16 09:27:33;;;;;;;3.57;1.40;;;;;;;20.88;69.10;101318.50;5072987;28;20481;-69
2023/09/16 09:30:00;;;;;;;3.20;1.17;;;;;;;20.96;69.35;101316.75;5073347;28;21004;-69
2023/09/16 09:32:31;;;;;;;3.00;1.20;;;;;;;21.02;69.57;101307.06;5073228;28;20437;-69
2023/09/16 09:34:58;;;;;;;3.43;1.40;;;;;;;21.08;67.80;101303.69;5072850;28;20905;-69
2023/09/16 09:37:25;;;;;;;2.43;0.90;;;;;;;21.15;68.44;101306.63;5073179;28;20460;-70
2023/09/16 09:40:05;;;;;;;5.60;2.10;;;;;;;21.34;66.01;101299.66;5076001;28;20532;-69
2023/09/16 09:42:32;;;;;;;3.00;1.30;;;;;;;21.45;65.43;101297.13;5077151;28;20413;-69
2023/09/16 09:45:02;;;;;;;2.60;1.00;;;;;;;21.60;63.93;101290.78;5076927;28;20441;-70
2023/09/16 09:47:30;;;;;;;2.60;1.10;;;;;;;21.68;65.09;101292.56;5076375;28;20493;-70
2023/09/16 09:49:57;;;;;;;3.40;1.20;;;;;;;21.70;66.84;101287.50;5076834;28;20442;-70
2023/09/16 09:52:24;;;;;;;2.83;1.23;;;;;;;21.80;64.93;101288.88;5077218;28;20445;-70
2023/09/16 09:54:52;;;;;;;2.20;0.80;;;;;;;21.83;65.59;101288.97;5076359;28;20532;-69
2023/09/16 09:57:20;;;;;;;3.20;1.23;;;;;;;21.77;65.78;101286.84;5076441;28;20750;-69
2023/09/16 09:59:47;;;;;;;2.70;1.10;;;;;;;21.76;66.17;101294.31;5076359;28;20441;-69
2023/09/16 10:02:14;;;;;;;2.57;1.00;;;;;;;21.89;65.68;101284.75;5076648;28;20436;-70
2023/09/16 10:04:41;;;;;;;2.50;1.10;;;;;;;22.04;64.52;101285.84;5076427;28;20520;-69
2023/09/16 10:07:08;;;;;;;3.03;1.03;;;;;;;22.15;65.09;101283.34;5076209;28;20846;-69
2023/09/16 10:09:35;;;;;;;2.63;1.13;;;;;;;22.25;64.41;101287.50;5076477;28;20499;-69
2023/09/16 10:12:03;;;;;;;2.87;1.07;;;;;;;22.31;62.95;101284.09;5076215;28;20433;-69
2023/09/16 10:14:32;;;;;;;2.77;1.27;;;;;;;22.45;61.71;101278.06;5076033;28;20941;-69
2023/09/16 10:16:59;;;;;;;2.30;1.00;;;;;;;22.55;61.71;101277.44;5076510;28;20519;-69
2023/09/16 10:19:27;;;;;;;2.97;1.03;;;;;;;22.60;63.08;101276.34;5076339;28;20526;-69
2023/09/16 10:21:53;;;;;;;2.53;1.07;;;;;;;22.64;62.92;101271.69;5075917;28;20524;-69
2023/09/16 10:24:21;;;;;;;2.93;0.90;;;;;;;22.70;62.89;101270.22;5075797;28;21024;-69
2023/09/16 10:26:49;;;;;;;2.60;0.90;;;;;;;22.59;63.20;101272.00;5075639;28;21091;-69
2023/09/16 10:29:18;;;;;;;2.77;1.13;;;;;;;22.59;63.10;101266.47;5075969;28;20494;-69
2023/09/16 10:31:47;;;;;;;4.63;1.17;;;;;;;22.62;63.31;101265.72;5076571;28;20517;-70
2023/09/16 10:34:14;;;;;;;3.27;1.10;;;;;;;22.74;62.63;101265.56;5075610;28;20471;-70
2023/09/16 10:36:41;;;;;;;2.97;1.17;;;;;;;22.81;61.94;101260.16;5075589;28;20485;-70
2023/09/16 10:39:09;;;;;;;3.10;1.27;;;;;;;22.95;62.31;101258.84;5076115;28;20544;-70
2023/09/16 10:41:37;;;;;;;2.70;1.13;;;;;;;22.94;62.01;101258.06;5076086;28;20474;-70
2023/09/16 10:44:05;;;;;;;3.13;1.60;;;;;;;22.94;59.78;101260.03;5075676;28;20878;-70
2023/09/16 10:46:34;;;;;;;2.73;1.13;;;;;;;23.01;61.23;101251.84;5075436;28;20980;-70
2023/09/16 10:49:03;;;;;;;2.97;1.60;;;;;;;23.20;61.95;101259.25;5075627;28;20528;-70
2023/09/16 10:51:34;;;;;;;2.90;1.30;;;;;;;23.40;61.64;101252.47;5075329;28;20437;-70
2023/09/16 10:54:06;;;;;;;2.90;1.47;;;;;;;23.58;59.30;101245.22;5076154;28;20421;-70
2023/09/16 10:56:37;;;;;;;3.00;1.30;;;;;;;23.81;58.43;101244.38;5075541;28;20540;-70
2023/09/16 10:59:08;;;;;;;4.00;1.77;;;;;;;24.04;59.43;101238.72;5075436;28;20891;-70
2023/09/16 11:01:38;;;;;;;4.17;1.53;;;;;;;24.26;59.80;101234.22;5075740;28;20437;-70
2023/09/16 11:04:12;;;;;;;5.60;1.63;;;;;;;24.52;58.47;101238.91;5075285;28;20434;-70
2023/09/16 11:06:39;;;;;;;3.70;1.57;;;;;;;24.69;58.50;101243.81;5075312;28;20544;-70
2023/09/16 11:09:06;;;;;;;5.20;1.57;;;;;;;24.81;55.95;101235.22;5075342;28;21016;-70
2023/09/16 11:11:34;;;;;;;3.10;1.60;;;;;;;25.19;55.38;101237.91;5075262;28;20448;-70
2023/09/16 11:14:02;;;;;;;2.60;0.90;;;;;;;25.89;55.40;101237.56;5075132;28;20439;-70
2023/09/16 11:16:29;;;;;;;2.83;1.20;;;;;;;26.88;52.24;101236.25;5074807;28;21032;-71
2023/09/16 11:18:56;;;;;;;3.13;1.57;;;;;;;27.83;50.00;101239.31;5074776;28;20476;-70
2023/09/16 11:21:25;;;;;;;3.53;1.40;;;;;;;28.45;47.00;101239.81;5075212;28;20491;-69
2023/09/16 11:23:52;;;;;;;4.40;1.93;;;;;;;29.07;46.78;101241.78;5075005;28;20476;-70
2023/09/16 11:26:22;;;;;;;3.77;1.60;;;;;;;29.88;43.96;101230.94;5075166;28;20467;-70